sensor_id;sensor_type;location;lat;lon;timestamp;temperature;humidity
37204;DHT22;23098;48.054;10.636;2022-10-16T00:01:21;12.60;99.90
37204;DHT22;23098;48.054;10.636;2022-10-16T00:03:48;12.70;99.90
37204;DHT22;23098;48.054;10.636;2022-10-16T00:06:16;12.80;99.90
37204;DHT22;23098;48.054;10.636;2022-10-16T00:08:42;12.90;99.90
37204;DHT22;23098;48.054;10.636;2022-10-16T00:11:10;12.90;99.90
37204;DHT22;23098;48.054;10.636;2022-10-16T00:13:38;13.00;99.90
37204;DHT22;23098;48.054;10.636;2022-10-16T00:16:04;13.00;99.90
37204;DHT22;23098;48.054;10.636;2022-10-16T00:18:30;13.00;99.90
37204;DHT22;23098;48.054;10.636;2022-10-16T00:21:08;13.00;99.90
37204;DHT22;23098;48.054;10.636;2022-10-16T00:23:35;13.00;99.90
37204;DHT22;23098;48.054;10.636;2022-10-16T00:26:04;13.00;99.90
37204;DHT22;23098;48.054;10.636;2022-10-16T00:28:30;13.00;99.90
37204;DHT22;23098;48.054;10.636;2022-10-16T00:30:56;12.90;99.90
37204;DHT22;23098;48.054;10.636;2022-10-16T00:33:22;12.80;99.90
37204;DHT22;23098;48.054;10.636;2022-10-16T00:35:48;12.80;99.90
37204;DHT22;23098;48.054;10.636;2022-10-16T00:38:13;12.80;99.90
37204;DHT22;23098;48.054;10.636;2022-10-16T00:40:39;12.80;99.90
37204;DHT22;23098;48.054;10.636;2022-10-16T00:43:13;12.80;99.90
37204;DHT22;23098;48.054;10.636;2022-10-16T00:45:40;12.70;99.90
37204;DHT22;23098;48.054;10.636;2022-10-16T00:48:10;12.80;99.90
37204;DHT22;23098;48.054;10.636;2022-10-16T00:50:37;12.70;99.90
37204;DHT22;23098;48.054;10.636;2022-10-16T00:53:04;12.70;99.90
37204;DHT22;23098;48.054;10.636;2022-10-16T00:55:30;12.70;99.90
37204;DHT22;23098;48.054;10.636;2022-10-16T00:57:57;12.70;99.90
37204;DHT22;23098;48.054;10.636;2022-10-16T01:00:25;12.70;99.90
37204;DHT22;23098;48.054;10.636;2022-10-16T01:03:00;12.70;99.90
37204;DHT22;23098;48.054;10.636;2022-10-16T01:05:33;12.60;99.90
37204;DHT22;23098;48.054;10.636;2022-10-16T01:08:21;12.60;99.90
37204;DHT22;23098;48.054;10.636;2022-10-16T01:11:10;12.50;99.90
37204;DHT22;23098;48.054;10.636;2022-10-16T01:13:43;12.50;99.90
37204;DHT22;23098;48.054;10.636;2022-10-16T01:16:18;12.40;99.90
37204;DHT22;23098;48.054;10.636;2022-10-16T01:18:54;12.40;99.90
37204;DHT22;23098;48.054;10.636;2022-10-16T01:21:29;12.30;99.90
37204;DHT22;23098;48.054;10.636;2022-10-16T01:24:39;12.30;99.90
37204;DHT22;23098;48.054;10.636;2022-10-16T01:27:25;12.30;99.90
37204;DHT22;23098;48.054;10.636;2022-10-16T01:30:07;12.20;99.90
37204;DHT22;23098;48.054;10.636;2022-10-16T01:32:41;12.20;99.90
37204;DHT22;23098;48.054;10.636;2022-10-16T01:35:22;12.30;99.90
37204;DHT22;23098;48.054;10.636;2022-10-16T01:37:53;12.30;99.90
37204;DHT22;23098;48.054;10.636;2022-10-16T01:40:23;12.30;99.90
37204;DHT22;23098;48.054;10.636;2022-10-16T01:42:56;12.40;99.90
37204;DHT22;23098;48.054;10.636;2022-10-16T01:45:24;12.40;99.90
37204;DHT22;23098;48.054;10.636;2022-10-16T01:47:51;12.50;99.90
37204;DHT22;23098;48.054;10.636;2022-10-16T01:50:19;12.40;99.90
37204;DHT22;23098;48.054;10.636;2022-10-16T01:52:48;12.40;99.90
37204;DHT22;23098;48.054;10.636;2022-10-16T01:55:21;12.40;99.90
37204;DHT22;23098;48.054;10.636;2022-10-16T01:57:49;12.50;99.90
37204;DHT22;23098;48.054;10.636;2022-10-16T02:00:16;12.50;99.90
37204;DHT22;23098;48.054;10.636;2022-10-16T02:02:45;12.40;99.90
37204;DHT22;23098;48.054;10.636;2022-10-16T02:05:20;12.30;99.90
37204;DHT22;23098;48.054;10.636;2022-10-16T02:07:48;12.30;99.90
37204;DHT22;23098;48.054;10.636;2022-10-16T02:10:14;12.20;99.90
37204;DHT22;23098;48.054;10.636;2022-10-16T02:12:42;12.20;99.90
37204;DHT22;23098;48.054;10.636;2022-10-16T02:15:09;12.20;99.90
37204;DHT22;23098;48.054;10.636;2022-10-16T02:17:35;12.20;99.90
37204;DHT22;23098;48.054;10.636;2022-10-16T02:20:01;12.30;99.90
37204;DHT22;23098;48.054;10.636;2022-10-16T02:22:32;12.30;99.90
37204;DHT22;23098;48.054;10.636;2022-10-16T02:25:05;12.30;99.90
37204;DHT22;23098;48.054;10.636;2022-10-16T02:27:39;12.40;99.90
37204;DHT22;23098;48.054;10.636;2022-10-16T02:32:45;12.50;99.90
37204;DHT22;23098;48.054;10.636;2022-10-16T02:35:11;12.60;99.90
37204;DHT22;23098;48.054;10.636;2022-10-16T02:37:38;12.70;99.90
37204;DHT22;23098;48.054;10.636;2022-10-16T02:40:06;12.70;99.90
37204;DHT22;23098;48.054;10.636;2022-10-16T02:42:38;12.70;99.90
37204;DHT22;23098;48.054;10.636;2022-10-16T02:45:05;12.70;99.90
37204;DHT22;23098;48.054;10.636;2022-10-16T02:47:31;12.70;99.90
37204;DHT22;23098;48.054;10.636;2022-10-16T02:49:57;12.70;99.90
37204;DHT22;23098;48.054;10.636;2022-10-16T02:52:22;12.80;99.90
37204;DHT22;23098;48.054;10.636;2022-10-16T02:54:48;12.70;99.90
37204;DHT22;23098;48.054;10.636;2022-10-16T02:57:13;12.70;99.90
37204;DHT22;23098;48.054;10.636;2022-10-16T02:59:39;12.70;99.90
37204;DHT22;23098;48.054;10.636;2022-10-16T03:02:04;12.70;99.90
37204;DHT22;23098;48.054;10.636;2022-10-16T03:04:30;12.70;99.90
37204;DHT22;23098;48.054;10.636;2022-10-16T03:06:56;12.80;99.90
37204;DHT22;23098;48.054;10.636;2022-10-16T03:09:21;12.80;99.90
37204;DHT22;23098;48.054;10.636;2022-10-16T03:11:47;12.80;99.90
37204;DHT22;23098;48.054;10.636;2022-10-16T03:14:12;12.80;99.90
37204;DHT22;23098;48.054;10.636;2022-10-16T03:16:38;12.80;99.90
37204;DHT22;23098;48.054;10.636;2022-10-16T03:19:04;12.90;99.90
37204;DHT22;23098;48.054;10.636;2022-10-16T03:21:29;12.90;99.90
37204;DHT22;23098;48.054;10.636;2022-10-16T03:23:55;12.90;99.90
37204;DHT22;23098;48.054;10.636;2022-10-16T03:26:21;12.90;99.90
37204;DHT22;23098;48.054;10.636;2022-10-16T03:28:46;12.90;99.90
37204;DHT22;23098;48.054;10.636;2022-10-16T03:31:12;12.80;99.90
37204;DHT22;23098;48.054;10.636;2022-10-16T03:33:39;12.90;99.90
37204;DHT22;23098;48.054;10.636;2022-10-16T03:36:04;12.90;99.90
37204;DHT22;23098;48.054;10.636;2022-10-16T03:38:30;12.90;99.90
37204;DHT22;23098;48.054;10.636;2022-10-16T03:40:55;13.00;99.90
37204;DHT22;23098;48.054;10.636;2022-10-16T03:43:21;13.00;99.90
37204;DHT22;23098;48.054;10.636;2022-10-16T03:45:47;13.00;99.90
37204;DHT22;23098;48.054;10.636;2022-10-16T03:48:12;13.00;99.90
37204;DHT22;23098;48.054;10.636;2022-10-16T03:50:38;13.00;99.90
37204;DHT22;23098;48.054;10.636;2022-10-16T03:53:03;13.10;99.90
37204;DHT22;23098;48.054;10.636;2022-10-16T03:55:29;13.10;99.90
37204;DHT22;23098;48.054;10.636;2022-10-16T03:57:54;13.10;99.90
37204;DHT22;23098;48.054;10.636;2022-10-16T04:00:20;13.10;99.90
37204;DHT22;23098;48.054;10.636;2022-10-16T04:02:45;13.10;99.90
37204;DHT22;23098;48.054;10.636;2022-10-16T04:05:11;13.10;99.90
37204;DHT22;23098;48.054;10.636;2022-10-16T04:07:37;13.10;99.90
37204;DHT22;23098;48.054;10.636;2022-10-16T04:10:03;13.10;99.90
37204;DHT22;23098;48.054;10.636;2022-10-16T04:12:29;13.10;99.90
37204;DHT22;23098;48.054;10.636;2022-10-16T04:14:54;13.10;99.90
37204;DHT22;23098;48.054;10.636;2022-10-16T04:17:20;13.10;99.90
37204;DHT22;23098;48.054;10.636;2022-10-16T04:19:46;13.10;99.90
37204;DHT22;23098;48.054;10.636;2022-10-16T04:22:11;13.10;99.90
37204;DHT22;23098;48.054;10.636;2022-10-16T04:24:38;13.00;99.90
37204;DHT22;23098;48.054;10.636;2022-10-16T04:27:04;13.00;99.90
37204;DHT22;23098;48.054;10.636;2022-10-16T04:29:29;13.00;99.90
37204;DHT22;23098;48.054;10.636;2022-10-16T04:31:55;13.10;99.90
37204;DHT22;23098;48.054;10.636;2022-10-16T04:34:20;13.10;99.90
37204;DHT22;23098;48.054;10.636;2022-10-16T04:36:49;13.10;99.90
37204;DHT22;23098;48.054;10.636;2022-10-16T04:39:15;13.00;99.90
37204;DHT22;23098;48.054;10.636;2022-10-16T04:41:41;13.00;99.90
37204;DHT22;23098;48.054;10.636;2022-10-16T04:44:06;12.90;99.90
37204;DHT22;23098;48.054;10.636;2022-10-16T04:46:32;12.90;99.90
37204;DHT22;23098;48.054;10.636;2022-10-16T04:48:57;12.90;99.90
37204;DHT22;23098;48.054;10.636;2022-10-16T04:51:23;12.90;99.90
37204;DHT22;23098;48.054;10.636;2022-10-16T04:53:49;12.90;99.90
37204;DHT22;23098;48.054;10.636;2022-10-16T04:56:14;12.90;99.90
37204;DHT22;23098;48.054;10.636;2022-10-16T04:58:40;12.90;99.90
37204;DHT22;23098;48.054;10.636;2022-10-16T05:01:06;12.90;99.90
37204;DHT22;23098;48.054;10.636;2022-10-16T05:03:31;13.00;99.90
37204;DHT22;23098;48.054;10.636;2022-10-16T05:05:57;13.10;99.90
37204;DHT22;23098;48.054;10.636;2022-10-16T05:08:22;13.10;99.90
37204;DHT22;23098;48.054;10.636;2022-10-16T05:10:48;13.10;99.90
37204;DHT22;23098;48.054;10.636;2022-10-16T05:13:13;13.10;99.90
37204;DHT22;23098;48.054;10.636;2022-10-16T05:15:39;13.10;99.90
37204;DHT22;23098;48.054;10.636;2022-10-16T05:18:05;13.10;99.90
37204;DHT22;23098;48.054;10.636;2022-10-16T05:20:30;13.10;99.90
37204;DHT22;23098;48.054;10.636;2022-10-16T05:22:56;13.00;99.90
37204;DHT22;23098;48.054;10.636;2022-10-16T05:25:21;13.00;99.90
37204;DHT22;23098;48.054;10.636;2022-10-16T05:27:48;13.00;99.90
37204;DHT22;23098;48.054;10.636;2022-10-16T05:30:14;13.00;99.90
37204;DHT22;23098;48.054;10.636;2022-10-16T05:32:40;13.00;99.90
37204;DHT22;23098;48.054;10.636;2022-10-16T05:35:05;13.00;99.90
37204;DHT22;23098;48.054;10.636;2022-10-16T05:37:31;13.00;99.90
37204;DHT22;23098;48.054;10.636;2022-10-16T05:39:57;12.90;99.90
37204;DHT22;23098;48.054;10.636;2022-10-16T05:42:22;12.90;99.90
37204;DHT22;23098;48.054;10.636;2022-10-16T05:44:48;12.80;99.90
37204;DHT22;23098;48.054;10.636;2022-10-16T05:47:13;12.80;99.90
37204;DHT22;23098;48.054;10.636;2022-10-16T05:49:39;12.70;99.90
37204;DHT22;23098;48.054;10.636;2022-10-16T05:52:05;12.70;99.90
37204;DHT22;23098;48.054;10.636;2022-10-16T05:54:30;12.70;99.90
37204;DHT22;23098;48.054;10.636;2022-10-16T05:56:56;12.60;99.90
37204;DHT22;23098;48.054;10.636;2022-10-16T05:59:22;12.60;99.90
37204;DHT22;23098;48.054;10.636;2022-10-16T06:01:47;12.60;99.90
37204;DHT22;23098;48.054;10.636;2022-10-16T06:04:13;12.70;99.90
37204;DHT22;23098;48.054;10.636;2022-10-16T06:06:38;12.70;99.90
37204;DHT22;23098;48.054;10.636;2022-10-16T06:09:05;12.70;99.90
37204;DHT22;23098;48.054;10.636;2022-10-16T06:11:32;12.80;99.90
37204;DHT22;23098;48.054;10.636;2022-10-16T06:14:00;12.70;99.90
37204;DHT22;23098;48.054;10.636;2022-10-16T06:16:33;12.70;99.90
37204;DHT22;23098;48.054;10.636;2022-10-16T06:19:00;12.70;99.90
37204;DHT22;23098;48.054;10.636;2022-10-16T06:21:27;12.70;99.90
37204;DHT22;23098;48.054;10.636;2022-10-16T06:23:54;12.70;99.90
37204;DHT22;23098;48.054;10.636;2022-10-16T06:26:23;12.80;99.90
37204;DHT22;23098;48.054;10.636;2022-10-16T06:28:50;12.70;99.90
37204;DHT22;23098;48.054;10.636;2022-10-16T06:31:16;12.80;99.90
37204;DHT22;23098;48.054;10.636;2022-10-16T06:33:42;12.80;99.90
37204;DHT22;23098;48.054;10.636;2022-10-16T06:36:14;12.90;99.90
37204;DHT22;23098;48.054;10.636;2022-10-16T06:38:40;13.00;99.90
37204;DHT22;23098;48.054;10.636;2022-10-16T06:41:07;13.00;99.90
37204;DHT22;23098;48.054;10.636;2022-10-16T06:43:33;13.10;99.90
37204;DHT22;23098;48.054;10.636;2022-10-16T06:46:01;13.30;99.90
37204;DHT22;23098;48.054;10.636;2022-10-16T06:48:28;13.40;99.90
37204;DHT22;23098;48.054;10.636;2022-10-16T06:51:05;13.60;99.90
37204;DHT22;23098;48.054;10.636;2022-10-16T06:53:33;13.80;99.90
37204;DHT22;23098;48.054;10.636;2022-10-16T06:56:21;13.90;99.90
37204;DHT22;23098;48.054;10.636;2022-10-16T06:58:47;14.10;99.90
37204;DHT22;23098;48.054;10.636;2022-10-16T07:01:14;14.30;99.90
37204;DHT22;23098;48.054;10.636;2022-10-16T07:03:42;14.50;99.90
37204;DHT22;23098;48.054;10.636;2022-10-16T07:06:10;14.70;99.90
37204;DHT22;23098;48.054;10.636;2022-10-16T07:08:38;14.90;99.90
37204;DHT22;23098;48.054;10.636;2022-10-16T07:11:06;15.10;99.90
37204;DHT22;23098;48.054;10.636;2022-10-16T07:13:36;15.30;99.90
37204;DHT22;23098;48.054;10.636;2022-10-16T07:16:13;15.40;99.90
37204;DHT22;23098;48.054;10.636;2022-10-16T07:18:39;15.60;99.90
37204;DHT22;23098;48.054;10.636;2022-10-16T07:21:11;15.60;99.90
37204;DHT22;23098;48.054;10.636;2022-10-16T07:23:38;15.50;99.90
37204;DHT22;23098;48.054;10.636;2022-10-16T07:26:04;15.60;99.90
37204;DHT22;23098;48.054;10.636;2022-10-16T07:28:31;15.50;99.90
37204;DHT22;23098;48.054;10.636;2022-10-16T07:31:07;15.50;99.90
37204;DHT22;23098;48.054;10.636;2022-10-16T07:33:34;15.50;99.90
37204;DHT22;23098;48.054;10.636;2022-10-16T07:36:00;15.50;99.90
37204;DHT22;23098;48.054;10.636;2022-10-16T07:38:27;15.60;99.90
37204;DHT22;23098;48.054;10.636;2022-10-16T07:40:57;15.60;99.90
37204;DHT22;23098;48.054;10.636;2022-10-16T07:43:23;15.60;99.90
37204;DHT22;23098;48.054;10.636;2022-10-16T07:45:50;15.70;99.90
37204;DHT22;23098;48.054;10.636;2022-10-16T07:48:16;15.60;99.90
37204;DHT22;23098;48.054;10.636;2022-10-16T07:50:44;15.60;99.90
37204;DHT22;23098;48.054;10.636;2022-10-16T07:53:11;15.70;99.90
37204;DHT22;23098;48.054;10.636;2022-10-16T07:55:37;15.80;99.90
37204;DHT22;23098;48.054;10.636;2022-10-16T07:58:03;16.00;99.90
37204;DHT22;23098;48.054;10.636;2022-10-16T08:00:28;16.10;99.90
37204;DHT22;23098;48.054;10.636;2022-10-16T08:02:54;16.20;99.90
37204;DHT22;23098;48.054;10.636;2022-10-16T08:05:19;16.30;99.90
37204;DHT22;23098;48.054;10.636;2022-10-16T08:07:49;16.50;99.90
37204;DHT22;23098;48.054;10.636;2022-10-16T08:10:17;16.70;99.90
37204;DHT22;23098;48.054;10.636;2022-10-16T08:12:43;16.90;99.90
37204;DHT22;23098;48.054;10.636;2022-10-16T08:15:09;17.10;99.90
37204;DHT22;23098;48.054;10.636;2022-10-16T08:17:35;17.10;99.90
37204;DHT22;23098;48.054;10.636;2022-10-16T08:20:00;17.30;99.90
37204;DHT22;23098;48.054;10.636;2022-10-16T08:22:27;17.50;99.90
37204;DHT22;23098;48.054;10.636;2022-10-16T08:24:54;17.80;99.90
37204;DHT22;23098;48.054;10.636;2022-10-16T08:27:19;17.80;99.90
37204;DHT22;23098;48.054;10.636;2022-10-16T08:29:45;17.90;99.90
37204;DHT22;23098;48.054;10.636;2022-10-16T08:32:10;18.00;99.90
37204;DHT22;23098;48.054;10.636;2022-10-16T08:34:36;18.40;99.90
37204;DHT22;23098;48.054;10.636;2022-10-16T08:37:02;18.60;99.90
37204;DHT22;23098;48.054;10.636;2022-10-16T08:39:27;18.80;99.90
37204;DHT22;23098;48.054;10.636;2022-10-16T08:47:33;18.80;99.90
37204;DHT22;23098;48.054;10.636;2022-10-16T08:50:08;18.60;99.90
37204;DHT22;23098;48.054;10.636;2022-10-16T08:52:38;18.70;99.90
37204;DHT22;23098;48.054;10.636;2022-10-16T08:55:04;18.80;99.90
37204;DHT22;23098;48.054;10.636;2022-10-16T08:57:30;19.10;99.90
37204;DHT22;23098;48.054;10.636;2022-10-16T09:00:00;19.70;99.90
37204;DHT22;23098;48.054;10.636;2022-10-16T09:02:38;19.60;99.90
37204;DHT22;23098;48.054;10.636;2022-10-16T09:16:41;19.60;99.90
37204;DHT22;23098;48.054;10.636;2022-10-16T09:19:20;19.70;99.90
37204;DHT22;23098;48.054;10.636;2022-10-16T09:21:48;19.90;99.90
37204;DHT22;23098;48.054;10.636;2022-10-16T09:24:20;20.10;99.90
37204;DHT22;23098;48.054;10.636;2022-10-16T09:26:47;20.30;99.90
37204;DHT22;23098;48.054;10.636;2022-10-16T09:29:17;20.50;99.90
37204;DHT22;23098;48.054;10.636;2022-10-16T09:31:45;20.50;99.90
37204;DHT22;23098;48.054;10.636;2022-10-16T09:34:34;20.50;99.90
37204;DHT22;23098;48.054;10.636;2022-10-16T09:37:04;20.20;99.90
37204;DHT22;23098;48.054;10.636;2022-10-16T09:39:30;20.30;99.90
37204;DHT22;23098;48.054;10.636;2022-10-16T09:42:11;20.40;99.90
37204;DHT22;23098;48.054;10.636;2022-10-16T09:44:39;20.40;99.90
37204;DHT22;23098;48.054;10.636;2022-10-16T09:47:19;20.60;99.90
37204;DHT22;23098;48.054;10.636;2022-10-16T09:49:57;20.60;99.90
37204;DHT22;23098;48.054;10.636;2022-10-16T09:52:33;20.80;99.90
37204;DHT22;23098;48.054;10.636;2022-10-16T09:55:01;21.00;99.90
37204;DHT22;23098;48.054;10.636;2022-10-16T09:57:27;21.10;99.90
37204;DHT22;23098;48.054;10.636;2022-10-16T09:59:55;21.30;99.90
37204;DHT22;23098;48.054;10.636;2022-10-16T10:02:35;21.30;99.90
37204;DHT22;23098;48.054;10.636;2022-10-16T10:05:02;21.50;99.90
37204;DHT22;23098;48.054;10.636;2022-10-16T10:07:37;21.50;99.90
37204;DHT22;23098;48.054;10.636;2022-10-16T10:10:05;21.60;99.90
37204;DHT22;23098;48.054;10.636;2022-10-16T10:12:32;21.90;99.90
37204;DHT22;23098;48.054;10.636;2022-10-16T10:15:15;22.30;99.90
37204;DHT22;23098;48.054;10.636;2022-10-16T10:17:49;22.90;99.90
37204;DHT22;23098;48.054;10.636;2022-10-16T10:20:29;22.70;99.90
37204;DHT22;23098;48.054;10.636;2022-10-16T10:22:57;22.40;99.90
37204;DHT22;23098;48.054;10.636;2022-10-16T10:25:49;22.30;99.90
37204;DHT22;23098;48.054;10.636;2022-10-16T10:31:49;22.60;99.90
37204;DHT22;23098;48.054;10.636;2022-10-16T10:40:29;22.60;99.90
37204;DHT22;23098;48.054;10.636;2022-10-16T10:45:52;22.70;99.90
37204;DHT22;23098;48.054;10.636;2022-10-16T10:48:52;22.90;99.90
37204;DHT22;23098;48.054;10.636;2022-10-16T10:54:04;23.10;99.90
37204;DHT22;23098;48.054;10.636;2022-10-16T10:57:00;23.50;99.90
37204;DHT22;23098;48.054;10.636;2022-10-16T11:04:45;24.80;98.10
37204;DHT22;23098;48.054;10.636;2022-10-16T11:07:18;24.70;97.80
37204;DHT22;23098;48.054;10.636;2022-10-16T11:09:50;25.10;99.00
37204;DHT22;23098;48.054;10.636;2022-10-16T11:12:30;25.30;97.40
37204;DHT22;23098;48.054;10.636;2022-10-16T11:15:14;25.10;96.20
37204;DHT22;23098;48.054;10.636;2022-10-16T11:18:08;24.60;97.30
37204;DHT22;23098;48.054;10.636;2022-10-16T11:20:52;24.60;96.70
37204;DHT22;23098;48.054;10.636;2022-10-16T11:23:29;24.50;95.90
37204;DHT22;23098;48.054;10.636;2022-10-16T11:26:00;24.50;95.90
37204;DHT22;23098;48.054;10.636;2022-10-16T11:28:34;24.30;95.70
37204;DHT22;23098;48.054;10.636;2022-10-16T11:31:08;24.20;95.70
37204;DHT22;23098;48.054;10.636;2022-10-16T11:33:47;24.20;95.90
37204;DHT22;23098;48.054;10.636;2022-10-16T11:36:44;24.60;95.70
37204;DHT22;23098;48.054;10.636;2022-10-16T11:39:24;24.80;95.00
37204;DHT22;23098;48.054;10.636;2022-10-16T11:42:08;25.10;94.60
37204;DHT22;23098;48.054;10.636;2022-10-16T11:49:32;25.20;94.20
37204;DHT22;23098;48.054;10.636;2022-10-16T11:53:08;25.50;94.60
37204;DHT22;23098;48.054;10.636;2022-10-16T11:55:19;25.50;94.30
37204;DHT22;23098;48.054;10.636;2022-10-16T11:57:52;25.30;93.90
37204;DHT22;23098;48.054;10.636;2022-10-16T12:00:52;24.90;93.20
37204;DHT22;23098;48.054;10.636;2022-10-16T12:03:25;24.60;94.00
37204;DHT22;23098;48.054;10.636;2022-10-16T12:06:27;24.80;94.00
37204;DHT22;23098;48.054;10.636;2022-10-16T12:08:55;25.00;93.10
37204;DHT22;23098;48.054;10.636;2022-10-16T12:13:51;25.00;93.30
37204;DHT22;23098;48.054;10.636;2022-10-16T12:16:24;25.10;93.20
37204;DHT22;23098;48.054;10.636;2022-10-16T12:19:13;25.20;92.90
37204;DHT22;23098;48.054;10.636;2022-10-16T12:21:39;25.40;93.40
37204;DHT22;23098;48.054;10.636;2022-10-16T12:24:06;25.50;93.50
37204;DHT22;23098;48.054;10.636;2022-10-16T12:26:38;25.40;93.70
37204;DHT22;23098;48.054;10.636;2022-10-16T12:31:57;25.50;92.10
37204;DHT22;23098;48.054;10.636;2022-10-16T12:37:25;25.40;92.00
37204;DHT22;23098;48.054;10.636;2022-10-16T12:39:52;25.40;91.80
37204;DHT22;23098;48.054;10.636;2022-10-16T12:44:49;26.20;91.90
37204;DHT22;23098;48.054;10.636;2022-10-16T12:49:59;26.20;91.10
37204;DHT22;23098;48.054;10.636;2022-10-16T12:52:35;26.30;90.80
37204;DHT22;23098;48.054;10.636;2022-10-16T12:55:02;26.40;91.70
37204;DHT22;23098;48.054;10.636;2022-10-16T13:00:20;27.00;90.00
37204;DHT22;23098;48.054;10.636;2022-10-16T13:05:46;26.90;89.40
37204;DHT22;23098;48.054;10.636;2022-10-16T13:09:09;27.30;90.10
37204;DHT22;23098;48.054;10.636;2022-10-16T13:11:17;27.30;89.40
37204;DHT22;23098;48.054;10.636;2022-10-16T13:14:24;27.40;89.00
37204;DHT22;23098;48.054;10.636;2022-10-16T13:17:18;27.20;88.80
37204;DHT22;23098;48.054;10.636;2022-10-16T13:22:27;26.60;88.60
37204;DHT22;23098;48.054;10.636;2022-10-16T13:28:01;26.10;88.30
37204;DHT22;23098;48.054;10.636;2022-10-16T13:30:29;25.80;90.20
37204;DHT22;23098;48.054;10.636;2022-10-16T13:33:04;26.20;89.30
37204;DHT22;23098;48.054;10.636;2022-10-16T13:35:34;25.80;90.20
37204;DHT22;23098;48.054;10.636;2022-10-16T13:38:20;26.10;90.50
37204;DHT22;23098;48.054;10.636;2022-10-16T13:41:01;26.60;91.90
37204;DHT22;23098;48.054;10.636;2022-10-16T13:43:46;26.20;87.60
37204;DHT22;23098;48.054;10.636;2022-10-16T13:46:22;25.90;90.90
37204;DHT22;23098;48.054;10.636;2022-10-16T13:49:15;25.80;91.00
37204;DHT22;23098;48.054;10.636;2022-10-16T13:51:40;25.60;91.30
37204;DHT22;23098;48.054;10.636;2022-10-16T13:54:11;25.50;91.20
37204;DHT22;23098;48.054;10.636;2022-10-16T13:56:39;25.60;90.80
37204;DHT22;23098;48.054;10.636;2022-10-16T13:59:22;25.60;90.40
37204;DHT22;23098;48.054;10.636;2022-10-16T14:01:48;25.40;90.30
37204;DHT22;23098;48.054;10.636;2022-10-16T14:04:15;25.20;89.60
37204;DHT22;23098;48.054;10.636;2022-10-16T14:06:43;25.00;90.30
37204;DHT22;23098;48.054;10.636;2022-10-16T14:09:29;24.70;90.80
37204;DHT22;23098;48.054;10.636;2022-10-16T14:12:06;24.50;90.60
37204;DHT22;23098;48.054;10.636;2022-10-16T14:14:41;24.20;90.00
37204;DHT22;23098;48.054;10.636;2022-10-16T14:19:54;24.30;90.40
37204;DHT22;23098;48.054;10.636;2022-10-16T14:24:58;24.10;91.00
37204;DHT22;23098;48.054;10.636;2022-10-16T14:27:35;24.20;92.00
37204;DHT22;23098;48.054;10.636;2022-10-16T14:30:17;24.10;92.00
37204;DHT22;23098;48.054;10.636;2022-10-16T14:32:54;24.10;91.10
37204;DHT22;23098;48.054;10.636;2022-10-16T14:35:43;24.10;92.20
37204;DHT22;23098;48.054;10.636;2022-10-16T14:38:18;24.00;91.80
37204;DHT22;23098;48.054;10.636;2022-10-16T14:40:47;24.10;91.80
37204;DHT22;23098;48.054;10.636;2022-10-16T14:43:32;24.00;92.90
37204;DHT22;23098;48.054;10.636;2022-10-16T14:45:58;23.90;91.50
37204;DHT22;23098;48.054;10.636;2022-10-16T14:48:24;23.70;91.50
37204;DHT22;23098;48.054;10.636;2022-10-16T14:50:50;23.60;93.60
37204;DHT22;23098;48.054;10.636;2022-10-16T14:53:16;23.50;93.30
37204;DHT22;23098;48.054;10.636;2022-10-16T14:55:42;23.50;92.50
37204;DHT22;23098;48.054;10.636;2022-10-16T14:58:20;23.50;91.70
37204;DHT22;23098;48.054;10.636;2022-10-16T15:00:46;23.40;91.20
37204;DHT22;23098;48.054;10.636;2022-10-16T15:03:12;23.30;92.40
37204;DHT22;23098;48.054;10.636;2022-10-16T15:05:38;23.20;91.90
37204;DHT22;23098;48.054;10.636;2022-10-16T15:08:04;23.00;92.30
37204;DHT22;23098;48.054;10.636;2022-10-16T15:10:35;22.70;93.30
37204;DHT22;23098;48.054;10.636;2022-10-16T15:13:02;22.50;93.60
37204;DHT22;23098;48.054;10.636;2022-10-16T15:15:40;22.30;93.60
37204;DHT22;23098;48.054;10.636;2022-10-16T15:18:07;22.20;94.60
37204;DHT22;23098;48.054;10.636;2022-10-16T15:20:34;22.00;94.80
37204;DHT22;23098;48.054;10.636;2022-10-16T15:23:04;21.90;94.80
37204;DHT22;23098;48.054;10.636;2022-10-16T15:25:42;21.80;95.30
37204;DHT22;23098;48.054;10.636;2022-10-16T15:28:09;21.70;95.30
37204;DHT22;23098;48.054;10.636;2022-10-16T15:30:36;21.70;95.90
37204;DHT22;23098;48.054;10.636;2022-10-16T15:33:03;21.50;95.80
37204;DHT22;23098;48.054;10.636;2022-10-16T15:35:29;21.40;96.10
37204;DHT22;23098;48.054;10.636;2022-10-16T15:37:56;21.40;96.70
37204;DHT22;23098;48.054;10.636;2022-10-16T15:40:22;21.30;96.90
37204;DHT22;23098;48.054;10.636;2022-10-16T15:42:49;21.10;97.00
37204;DHT22;23098;48.054;10.636;2022-10-16T15:45:15;21.10;96.90
37204;DHT22;23098;48.054;10.636;2022-10-16T15:47:41;20.90;97.40
37204;DHT22;23098;48.054;10.636;2022-10-16T15:50:10;20.80;97.90
37204;DHT22;23098;48.054;10.636;2022-10-16T15:52:37;20.70;98.30
37204;DHT22;23098;48.054;10.636;2022-10-16T15:55:10;20.60;98.50
37204;DHT22;23098;48.054;10.636;2022-10-16T15:57:36;20.50;99.00
37204;DHT22;23098;48.054;10.636;2022-10-16T16:00:05;20.30;99.10
37204;DHT22;23098;48.054;10.636;2022-10-16T16:02:31;20.20;99.00
37204;DHT22;23098;48.054;10.636;2022-10-16T16:04:57;20.00;99.40
37204;DHT22;23098;48.054;10.636;2022-10-16T16:07:22;19.90;99.90
37204;DHT22;23098;48.054;10.636;2022-10-16T16:09:48;19.70;99.90
37204;DHT22;23098;48.054;10.636;2022-10-16T16:12:13;19.60;99.90
37204;DHT22;23098;48.054;10.636;2022-10-16T16:14:39;19.40;99.90
37204;DHT22;23098;48.054;10.636;2022-10-16T16:17:05;19.30;99.90
37204;DHT22;23098;48.054;10.636;2022-10-16T16:19:30;19.10;99.90
37204;DHT22;23098;48.054;10.636;2022-10-16T16:21:57;19.00;99.90
37204;DHT22;23098;48.054;10.636;2022-10-16T16:24:22;18.90;99.90
37204;DHT22;23098;48.054;10.636;2022-10-16T16:26:48;18.70;99.90
37204;DHT22;23098;48.054;10.636;2022-10-16T16:29:15;18.60;99.90
37204;DHT22;23098;48.054;10.636;2022-10-16T16:31:41;18.40;99.90
37204;DHT22;23098;48.054;10.636;2022-10-16T16:34:08;18.30;99.90
37204;DHT22;23098;48.054;10.636;2022-10-16T16:36:34;18.20;99.90
37204;DHT22;23098;48.054;10.636;2022-10-16T16:39:00;18.10;99.90
37204;DHT22;23098;48.054;10.636;2022-10-16T16:41:28;18.00;99.90
37204;DHT22;23098;48.054;10.636;2022-10-16T16:43:55;17.90;99.90
37204;DHT22;23098;48.054;10.636;2022-10-16T16:46:21;17.80;99.90
37204;DHT22;23098;48.054;10.636;2022-10-16T16:48:47;17.70;99.90